sensor_id;sensor_type;location;lat;lon;timestamp;pressure;altitude;pressure_sealevel;temperature;humidity
64228;BME280;50546;49.146;10.616;2022-07-22T00:02:12;96720.06;;;20.79;60.23
64228;BME280;50546;49.146;10.616;2022-07-22T00:04:37;96715.97;;;20.96;59.88
64228;BME280;50546;49.146;10.616;2022-07-22T00:07:02;96711.63;;;20.95;59.73
64228;BME280;50546;49.146;10.616;2022-07-22T00:09:28;96716.06;;;20.73;60.06
64228;BME280;50546;49.146;10.616;2022-07-22T00:11:54;96714.66;;;20.86;59.87
64228;BME280;50546;49.146;10.616;2022-07-22T00:14:20;96716.06;;;20.73;60.54
64228;BME280;50546;49.146;10.616;2022-07-22T00:16:45;96702.28;;;20.66;60.29
64228;BME280;50546;49.146;10.616;2022-07-22T00:19:10;96712.31;;;20.55;60.79
64228;BME280;50546;49.146;10.616;2022-07-22T00:21:36;96715.69;;;20.44;61.03
64228;BME280;50546;49.146;10.616;2022-07-22T00:24:01;96718.50;;;20.25;61.45
64228;BME280;50546;49.146;10.616;2022-07-22T00:26:27;96721.34;;;20.06;62.44
64228;BME280;50546;49.146;10.616;2022-07-22T00:28:52;96713.63;;;20.11;62.41
64228;BME280;50546;49.146;10.616;2022-07-22T00:31:18;96712.19;;;19.94;62.84
64228;BME280;50546;49.146;10.616;2022-07-22T00:33:43;96709.94;;;20.00;63.10
64228;BME280;50546;49.146;10.616;2022-07-22T00:36:08;96705.19;;;19.97;62.84
64228;BME280;50546;49.146;10.616;2022-07-22T00:38:34;96711.03;;;19.95;62.66
64228;BME280;50546;49.146;10.616;2022-07-22T00:41:00;96703.50;;;19.89;62.67
64228;BME280;50546;49.146;10.616;2022-07-22T00:43:25;96698.31;;;19.80;63.00
64228;BME280;50546;49.146;10.616;2022-07-22T00:45:51;96704.06;;;19.75;62.94
64228;BME280;50546;49.146;10.616;2022-07-22T00:48:16;96699.47;;;19.60;63.79
64228;BME280;50546;49.146;10.616;2022-07-22T00:50:42;96703.19;;;19.48;64.45
64228;BME280;50546;49.146;10.616;2022-07-22T00:53:07;96704.88;;;19.56;64.38
64228;BME280;50546;49.146;10.616;2022-07-22T00:55:34;96696.28;;;19.12;65.84
64228;BME280;50546;49.146;10.616;2022-07-22T00:58:00;96699.53;;;18.98;66.23
64228;BME280;50546;49.146;10.616;2022-07-22T01:00:26;96699.13;;;18.96;66.52
64228;BME280;50546;49.146;10.616;2022-07-22T01:02:51;96701.34;;;18.90;66.37
64228;BME280;50546;49.146;10.616;2022-07-22T01:05:16;96700.50;;;18.86;66.89
64228;BME280;50546;49.146;10.616;2022-07-22T01:07:43;96709.19;;;18.72;67.70
64228;BME280;50546;49.146;10.616;2022-07-22T01:10:08;96701.19;;;18.64;68.19
64228;BME280;50546;49.146;10.616;2022-07-22T01:12:34;96694.16;;;18.82;67.03
64228;BME280;50546;49.146;10.616;2022-07-22T01:14:59;96696.25;;;18.89;66.75
64228;BME280;50546;49.146;10.616;2022-07-22T01:17:24;96689.50;;;18.83;66.91
64228;BME280;50546;49.146;10.616;2022-07-22T01:19:50;96687.56;;;18.83;66.97
64228;BME280;50546;49.146;10.616;2022-07-22T01:22:15;96689.06;;;18.81;66.76
64228;BME280;50546;49.146;10.616;2022-07-22T01:24:41;96683.09;;;18.75;67.29
64228;BME280;50546;49.146;10.616;2022-07-22T01:27:06;96697.31;;;18.84;66.64
64228;BME280;50546;49.146;10.616;2022-07-22T01:29:32;96691.84;;;18.84;67.00
64228;BME280;50546;49.146;10.616;2022-07-22T01:31:57;96683.97;;;18.79;66.51
64228;BME280;50546;49.146;10.616;2022-07-22T01:34:23;96694.75;;;18.72;67.00
64228;BME280;50546;49.146;10.616;2022-07-22T01:36:48;96703.31;;;18.55;67.55
64228;BME280;50546;49.146;10.616;2022-07-22T01:39:14;96702.97;;;18.56;67.79
64228;BME280;50546;49.146;10.616;2022-07-22T01:41:39;96710.41;;;18.40;67.88
64228;BME280;50546;49.146;10.616;2022-07-22T01:44:05;96714.63;;;18.37;68.24
64228;BME280;50546;49.146;10.616;2022-07-22T01:46:30;96712.94;;;18.48;68.31
64228;BME280;50546;49.146;10.616;2022-07-22T01:48:56;96706.41;;;18.53;67.93
64228;BME280;50546;49.146;10.616;2022-07-22T01:51:22;96702.44;;;18.31;68.94
64228;BME280;50546;49.146;10.616;2022-07-22T01:53:47;96704.28;;;17.76;70.61
64228;BME280;50546;49.146;10.616;2022-07-22T01:56:13;96714.13;;;17.65;71.17
64228;BME280;50546;49.146;10.616;2022-07-22T01:58:39;96718.88;;;17.84;70.92
64228;BME280;50546;49.146;10.616;2022-07-22T02:01:04;96708.47;;;17.89;70.56
64228;BME280;50546;49.146;10.616;2022-07-22T02:03:30;96709.53;;;18.00;70.59
64228;BME280;50546;49.146;10.616;2022-07-22T02:05:55;96704.84;;;18.01;70.06
64228;BME280;50546;49.146;10.616;2022-07-22T02:08:20;96703.97;;;17.97;70.43
64228;BME280;50546;49.146;10.616;2022-07-22T02:10:46;96707.06;;;17.95;70.55
64228;BME280;50546;49.146;10.616;2022-07-22T02:13:12;96705.56;;;18.14;70.04
64228;BME280;50546;49.146;10.616;2022-07-22T02:15:37;96706.44;;;18.37;69.16
64228;BME280;50546;49.146;10.616;2022-07-22T02:18:14;96705.81;;;18.44;69.03
64228;BME280;50546;49.146;10.616;2022-07-22T02:20:40;96700.75;;;18.62;67.90
64228;BME280;50546;49.146;10.616;2022-07-22T02:23:06;96699.72;;;18.50;68.25
64228;BME280;50546;49.146;10.616;2022-07-22T02:25:31;96701.75;;;18.53;67.40
64228;BME280;50546;49.146;10.616;2022-07-22T02:27:57;96702.75;;;18.45;67.70
64228;BME280;50546;49.146;10.616;2022-07-22T02:30:22;96702.16;;;18.36;67.82
64228;BME280;50546;49.146;10.616;2022-07-22T02:32:47;96694.75;;;18.37;67.61
64228;BME280;50546;49.146;10.616;2022-07-22T02:35:13;96695.41;;;18.30;67.22
64228;BME280;50546;49.146;10.616;2022-07-22T02:37:38;96698.69;;;18.20;67.49
64228;BME280;50546;49.146;10.616;2022-07-22T02:40:05;96700.81;;;18.11;68.28
64228;BME280;50546;49.146;10.616;2022-07-22T02:42:31;96700.63;;;18.03;68.93
64228;BME280;50546;49.146;10.616;2022-07-22T02:44:56;96701.16;;;18.09;68.42
64228;BME280;50546;49.146;10.616;2022-07-22T02:47:22;96700.72;;;18.23;68.24
64228;BME280;50546;49.146;10.616;2022-07-22T02:49:47;96705.41;;;18.26;68.12
64228;BME280;50546;49.146;10.616;2022-07-22T02:52:12;96701.25;;;18.13;69.00
64228;BME280;50546;49.146;10.616;2022-07-22T02:54:37;96703.91;;;18.09;69.03
64228;BME280;50546;49.146;10.616;2022-07-22T02:57:03;96702.44;;;18.31;67.98
64228;BME280;50546;49.146;10.616;2022-07-22T02:59:28;96701.88;;;18.41;67.07
64228;BME280;50546;49.146;10.616;2022-07-22T03:01:53;96701.50;;;18.43;67.98
64228;BME280;50546;49.146;10.616;2022-07-22T03:04:19;96708.31;;;18.33;68.21
64228;BME280;50546;49.146;10.616;2022-07-22T03:06:44;96697.25;;;18.26;68.35
64228;BME280;50546;49.146;10.616;2022-07-22T03:09:09;96702.28;;;18.24;68.72
64228;BME280;50546;49.146;10.616;2022-07-22T03:11:35;96703.38;;;18.03;69.67
64228;BME280;50546;49.146;10.616;2022-07-22T03:14:00;96703.28;;;18.16;69.25
64228;BME280;50546;49.146;10.616;2022-07-22T03:16:25;96700.78;;;18.26;68.11
64228;BME280;50546;49.146;10.616;2022-07-22T03:18:50;96705.34;;;18.22;68.62
64228;BME280;50546;49.146;10.616;2022-07-22T03:21:16;96696.03;;;18.23;68.60
64228;BME280;50546;49.146;10.616;2022-07-22T03:23:41;96697.78;;;18.32;68.21
64228;BME280;50546;49.146;10.616;2022-07-22T03:26:06;96701.88;;;18.41;67.65
64228;BME280;50546;49.146;10.616;2022-07-22T03:28:32;96706.25;;;18.46;67.71
64228;BME280;50546;49.146;10.616;2022-07-22T03:30:57;96702.50;;;18.35;68.68
64228;BME280;50546;49.146;10.616;2022-07-22T03:33:23;96703.31;;;18.35;68.20
64228;BME280;50546;49.146;10.616;2022-07-22T03:35:48;96703.78;;;18.21;68.55
64228;BME280;50546;49.146;10.616;2022-07-22T03:38:15;96706.53;;;18.41;68.00
64228;BME280;50546;49.146;10.616;2022-07-22T03:40:40;96704.03;;;18.51;67.74
64228;BME280;50546;49.146;10.616;2022-07-22T03:43:06;96705.19;;;18.50;67.77
64228;BME280;50546;49.146;10.616;2022-07-22T03:45:31;96705.25;;;18.54;67.41
64228;BME280;50546;49.146;10.616;2022-07-22T03:47:56;96706.75;;;18.51;68.14
64228;BME280;50546;49.146;10.616;2022-07-22T03:50:23;96708.72;;;18.70;67.39
64228;BME280;50546;49.146;10.616;2022-07-22T03:52:48;96707.78;;;18.63;67.76
64228;BME280;50546;49.146;10.616;2022-07-22T03:55:14;96707.06;;;18.66;67.95
64228;BME280;50546;49.146;10.616;2022-07-22T03:57:39;96715.00;;;18.71;67.46
64228;BME280;50546;49.146;10.616;2022-07-22T04:00:05;96714.44;;;18.81;66.69
64228;BME280;50546;49.146;10.616;2022-07-22T04:02:31;96709.13;;;18.88;66.79
64228;BME280;50546;49.146;10.616;2022-07-22T04:04:56;96698.28;;;18.92;66.58
64228;BME280;50546;49.146;10.616;2022-07-22T04:07:21;96709.78;;;18.66;68.24
64228;BME280;50546;49.146;10.616;2022-07-22T04:09:47;96715.88;;;18.75;67.64
64228;BME280;50546;49.146;10.616;2022-07-22T04:12:12;96702.03;;;18.68;68.03
64228;BME280;50546;49.146;10.616;2022-07-22T04:14:37;96716.72;;;18.44;69.17
64228;BME280;50546;49.146;10.616;2022-07-22T04:17:02;96710.97;;;18.29;69.29
64228;BME280;50546;49.146;10.616;2022-07-22T04:19:28;96708.84;;;18.39;68.91
64228;BME280;50546;49.146;10.616;2022-07-22T04:21:53;96711.91;;;18.37;68.90
64228;BME280;50546;49.146;10.616;2022-07-22T04:24:18;96708.16;;;18.26;68.68
64228;BME280;50546;49.146;10.616;2022-07-22T04:26:44;96708.00;;;18.19;69.53
64228;BME280;50546;49.146;10.616;2022-07-22T04:29:09;96702.13;;;18.17;68.58
64228;BME280;50546;49.146;10.616;2022-07-22T04:31:34;96701.50;;;18.23;69.00
64228;BME280;50546;49.146;10.616;2022-07-22T04:34:00;96705.94;;;18.32;68.96
64228;BME280;50546;49.146;10.616;2022-07-22T04:36:25;96702.78;;;18.29;68.85
64228;BME280;50546;49.146;10.616;2022-07-22T04:38:50;96698.78;;;18.43;68.28
64228;BME280;50546;49.146;10.616;2022-07-22T04:41:16;96693.31;;;18.43;68.35
64228;BME280;50546;49.146;10.616;2022-07-22T04:43:41;96696.06;;;18.43;68.97
64228;BME280;50546;49.146;10.616;2022-07-22T04:46:07;96700.66;;;18.58;68.42
64228;BME280;50546;49.146;10.616;2022-07-22T04:48:33;96693.59;;;18.73;67.46
64228;BME280;50546;49.146;10.616;2022-07-22T04:51:02;96694.16;;;18.63;68.42
64228;BME280;50546;49.146;10.616;2022-07-22T04:53:28;96691.97;;;18.52;68.76
64228;BME280;50546;49.146;10.616;2022-07-22T04:55:54;96693.63;;;18.57;68.49
64228;BME280;50546;49.146;10.616;2022-07-22T04:58:19;96695.28;;;18.62;68.92
64228;BME280;50546;49.146;10.616;2022-07-22T05:00:45;96692.59;;;18.81;68.11
64228;BME280;50546;49.146;10.616;2022-07-22T05:03:10;96689.72;;;18.93;67.59
64228;BME280;50546;49.146;10.616;2022-07-22T05:05:36;96694.59;;;19.04;67.95
64228;BME280;50546;49.146;10.616;2022-07-22T05:08:01;96688.53;;;19.14;67.23
64228;BME280;50546;49.146;10.616;2022-07-22T05:10:26;96691.03;;;19.22;66.79
64228;BME280;50546;49.146;10.616;2022-07-22T05:12:52;96692.59;;;19.23;67.68
64228;BME280;50546;49.146;10.616;2022-07-22T05:15:18;96699.59;;;19.21;68.27
64228;BME280;50546;49.146;10.616;2022-07-22T05:17:43;96695.13;;;19.32;68.12
64228;BME280;50546;49.146;10.616;2022-07-22T05:20:09;96702.28;;;19.40;66.85
64228;BME280;50546;49.146;10.616;2022-07-22T05:22:34;96701.63;;;19.47;66.65
64228;BME280;50546;49.146;10.616;2022-07-22T05:24:59;96710.75;;;19.35;67.99
64228;BME280;50546;49.146;10.616;2022-07-22T05:27:25;96706.59;;;19.41;67.39
64228;BME280;50546;49.146;10.616;2022-07-22T05:29:50;96700.53;;;19.52;67.05
64228;BME280;50546;49.146;10.616;2022-07-22T05:32:15;96705.38;;;19.62;67.17
64228;BME280;50546;49.146;10.616;2022-07-22T05:34:41;96703.47;;;19.62;67.75
64228;BME280;50546;49.146;10.616;2022-07-22T05:37:06;96697.91;;;19.82;66.31
64228;BME280;50546;49.146;10.616;2022-07-22T05:39:31;96699.97;;;19.88;66.13
64228;BME280;50546;49.146;10.616;2022-07-22T05:41:57;96694.84;;;19.83;66.79
64228;BME280;50546;49.146;10.616;2022-07-22T05:44:22;96698.09;;;19.92;66.10
64228;BME280;50546;49.146;10.616;2022-07-22T05:46:47;96698.75;;;19.86;66.25
64228;BME280;50546;49.146;10.616;2022-07-22T05:49:13;96699.47;;;19.79;66.52
64228;BME280;50546;49.146;10.616;2022-07-22T05:51:38;96698.34;;;19.61;66.68
64228;BME280;50546;49.146;10.616;2022-07-22T05:54:03;96706.00;;;19.75;66.57
64228;BME280;50546;49.146;10.616;2022-07-22T05:56:29;96691.66;;;19.81;66.79
64228;BME280;50546;49.146;10.616;2022-07-22T05:58:54;96700.31;;;20.10;66.67
64228;BME280;50546;49.146;10.616;2022-07-22T06:01:21;96701.78;;;20.30;65.34
64228;BME280;50546;49.146;10.616;2022-07-22T06:03:46;96696.91;;;20.47;64.75
64228;BME280;50546;49.146;10.616;2022-07-22T06:06:12;96698.50;;;20.48;64.73
64228;BME280;50546;49.146;10.616;2022-07-22T06:08:37;96708.59;;;20.43;64.57
64228;BME280;50546;49.146;10.616;2022-07-22T06:11:02;96699.13;;;20.64;64.92
64228;BME280;50546;49.146;10.616;2022-07-22T06:13:28;96707.34;;;20.64;64.42
64228;BME280;50546;49.146;10.616;2022-07-22T06:15:53;96713.16;;;20.59;64.43
64228;BME280;50546;49.146;10.616;2022-07-22T06:18:18;96711.75;;;20.72;64.10
64228;BME280;50546;49.146;10.616;2022-07-22T06:20:44;96713.50;;;20.87;64.51
64228;BME280;50546;49.146;10.616;2022-07-22T06:23:10;96703.97;;;21.08;63.79
64228;BME280;50546;49.146;10.616;2022-07-22T06:25:35;96700.75;;;21.02;63.43
64228;BME280;50546;49.146;10.616;2022-07-22T06:28:01;96705.22;;;21.14;63.46
64228;BME280;50546;49.146;10.616;2022-07-22T06:30:26;96706.47;;;21.24;63.56
64228;BME280;50546;49.146;10.616;2022-07-22T06:32:52;96706.69;;;21.42;63.77
64228;BME280;50546;49.146;10.616;2022-07-22T06:35:17;96702.50;;;21.55;62.53
64228;BME280;50546;49.146;10.616;2022-07-22T06:37:43;96706.69;;;21.42;62.65
64228;BME280;50546;49.146;10.616;2022-07-22T06:40:09;96710.84;;;21.28;63.27
64228;BME280;50546;49.146;10.616;2022-07-22T06:42:34;96708.16;;;21.32;64.25
64228;BME280;50546;49.146;10.616;2022-07-22T06:45:00;96712.19;;;21.45;64.12
64228;BME280;50546;49.146;10.616;2022-07-22T06:47:25;96704.56;;;21.65;63.21
64228;BME280;50546;49.146;10.616;2022-07-22T06:49:50;96707.63;;;21.60;63.44
64228;BME280;50546;49.146;10.616;2022-07-22T06:52:16;96717.66;;;21.82;62.79
64228;BME280;50546;49.146;10.616;2022-07-22T06:54:41;96708.13;;;22.17;62.71
64228;BME280;50546;49.146;10.616;2022-07-22T06:57:06;96705.84;;;22.26;61.27
64228;BME280;50546;49.146;10.616;2022-07-22T06:59:31;96707.41;;;22.24;61.32
64228;BME280;50546;49.146;10.616;2022-07-22T07:01:57;96708.78;;;22.55;60.78
64228;BME280;50546;49.146;10.616;2022-07-22T07:04:22;96707.66;;;22.70;60.90
64228;BME280;50546;49.146;10.616;2022-07-22T07:06:48;96699.16;;;22.97;59.74
64228;BME280;50546;49.146;10.616;2022-07-22T07:09:13;96693.69;;;23.04;58.97
64228;BME280;50546;49.146;10.616;2022-07-22T07:11:38;96696.84;;;23.10;59.33
64228;BME280;50546;49.146;10.616;2022-07-22T07:14:04;96688.94;;;22.94;59.77
64228;BME280;50546;49.146;10.616;2022-07-22T07:16:29;96687.31;;;22.89;59.16
64228;BME280;50546;49.146;10.616;2022-07-22T07:18:54;96679.50;;;22.95;58.94
64228;BME280;50546;49.146;10.616;2022-07-22T07:21:20;96677.06;;;22.75;59.26
64228;BME280;50546;49.146;10.616;2022-07-22T07:23:46;96674.34;;;22.82;59.27
64228;BME280;50546;49.146;10.616;2022-07-22T07:26:11;96677.66;;;23.20;59.76
64228;BME280;50546;49.146;10.616;2022-07-22T07:28:36;96667.06;;;23.40;58.34
64228;BME280;50546;49.146;10.616;2022-07-22T07:31:02;96674.94;;;23.56;58.30
64228;BME280;50546;49.146;10.616;2022-07-22T07:33:28;96673.00;;;23.71;57.66
64228;BME280;50546;49.146;10.616;2022-07-22T07:35:53;96677.66;;;23.52;57.61
64228;BME280;50546;49.146;10.616;2022-07-22T07:38:18;96669.06;;;23.61;57.17
64228;BME280;50546;49.146;10.616;2022-07-22T07:40:44;96672.22;;;23.92;57.35
64228;BME280;50546;49.146;10.616;2022-07-22T07:43:09;96667.91;;;23.84;56.58
64228;BME280;50546;49.146;10.616;2022-07-22T07:45:35;96671.06;;;23.71;57.51
64228;BME280;50546;49.146;10.616;2022-07-22T07:48:01;96660.81;;;24.00;57.10
64228;BME280;50546;49.146;10.616;2022-07-22T07:50:26;96663.53;;;24.18;56.63
64228;BME280;50546;49.146;10.616;2022-07-22T07:52:52;96660.78;;;24.18;55.50
64228;BME280;50546;49.146;10.616;2022-07-22T07:55:18;96663.53;;;24.18;56.60
64228;BME280;50546;49.146;10.616;2022-07-22T07:57:43;96653.56;;;24.67;55.60
64228;BME280;50546;49.146;10.616;2022-07-22T08:00:12;96658.31;;;24.67;53.91
64228;BME280;50546;49.146;10.616;2022-07-22T08:02:38;96658.66;;;24.76;54.18
64228;BME280;50546;49.146;10.616;2022-07-22T08:05:04;96649.53;;;24.90;54.04
64228;BME280;50546;49.146;10.616;2022-07-22T08:07:30;96650.50;;;25.35;52.86
64228;BME280;50546;49.146;10.616;2022-07-22T08:09:55;96655.69;;;25.23;52.76
64228;BME280;50546;49.146;10.616;2022-07-22T08:12:21;96655.84;;;25.57;51.92
64228;BME280;50546;49.146;10.616;2022-07-22T08:14:46;96653.88;;;25.57;50.88
64228;BME280;50546;49.146;10.616;2022-07-22T08:17:12;96652.41;;;25.42;50.96
64228;BME280;50546;49.146;10.616;2022-07-22T08:19:37;96647.72;;;25.91;50.63
64228;BME280;50546;49.146;10.616;2022-07-22T08:22:03;96645.84;;;25.74;50.33
64228;BME280;50546;49.146;10.616;2022-07-22T08:24:28;96644.94;;;25.91;50.24
64228;BME280;50546;49.146;10.616;2022-07-22T08:26:53;96644.28;;;25.73;50.33
64228;BME280;50546;49.146;10.616;2022-07-22T08:29:19;96646.88;;;25.45;50.20
64228;BME280;50546;49.146;10.616;2022-07-22T08:31:44;96633.47;;;25.44;50.22
64228;BME280;50546;49.146;10.616;2022-07-22T08:34:09;96643.09;;;25.21;51.13
64228;BME280;50546;49.146;10.616;2022-07-22T08:36:35;96637.16;;;25.23;51.27
64228;BME280;50546;49.146;10.616;2022-07-22T08:39:00;96630.53;;;25.65;49.37
64228;BME280;50546;49.146;10.616;2022-07-22T08:41:26;96631.63;;;26.20;50.20
64228;BME280;50546;49.146;10.616;2022-07-22T08:43:52;96638.41;;;26.53;47.91
64228;BME280;50546;49.146;10.616;2022-07-22T08:46:17;96629.50;;;26.35;49.09
64228;BME280;50546;49.146;10.616;2022-07-22T08:48:43;96628.59;;;26.45;48.01
64228;BME280;50546;49.146;10.616;2022-07-22T08:51:08;96623.84;;;27.10;46.05
64228;BME280;50546;49.146;10.616;2022-07-22T08:53:34;96624.28;;;27.36;46.00
64228;BME280;50546;49.146;10.616;2022-07-22T08:55:59;96614.59;;;26.94;45.24
64228;BME280;50546;49.146;10.616;2022-07-22T08:58:26;96624.25;;;27.40;45.92
64228;BME280;50546;49.146;10.616;2022-07-22T09:01:11;96616.81;;;27.60;45.01
64228;BME280;50546;49.146;10.616;2022-07-22T09:03:54;96618.16;;;27.48;44.34
64228;BME280;50546;49.146;10.616;2022-07-22T09:06:22;96617.47;;;27.68;44.39
64228;BME280;50546;49.146;10.616;2022-07-22T09:11:20;96602.97;;;27.60;43.90
64228;BME280;50546;49.146;10.616;2022-07-22T09:13:46;96605.78;;;27.56;43.96
64228;BME280;50546;49.146;10.616;2022-07-22T09:16:12;96608.72;;;27.19;44.00
64228;BME280;50546;49.146;10.616;2022-07-22T09:18:48;96617.19;;;26.77;44.36
64228;BME280;50546;49.146;10.616;2022-07-22T09:21:13;96618.06;;;26.71;44.13
64228;BME280;50546;49.146;10.616;2022-07-22T09:23:41;96608.00;;;27.15;44.62
64228;BME280;50546;49.146;10.616;2022-07-22T09:26:07;96610.22;;;27.50;43.05
64228;BME280;50546;49.146;10.616;2022-07-22T09:28:32;96606.44;;;27.64;43.08
64228;BME280;50546;49.146;10.616;2022-07-22T09:30:58;96597.63;;;27.96;43.00
64228;BME280;50546;49.146;10.616;2022-07-22T09:33:24;96590.41;;;28.22;43.34
64228;BME280;50546;49.146;10.616;2022-07-22T09:35:49;96595.47;;;28.47;42.17
64228;BME280;50546;49.146;10.616;2022-07-22T09:38:16;96588.22;;;28.53;41.55
64228;BME280;50546;49.146;10.616;2022-07-22T09:40:44;96591.31;;;28.16;42.55
64228;BME280;50546;49.146;10.616;2022-07-22T09:43:14;96586.41;;;27.80;42.26
64228;BME280;50546;49.146;10.616;2022-07-22T09:45:55;96590.19;;;28.33;41.95
64228;BME280;50546;49.146;10.616;2022-07-22T09:48:24;96580.66;;;28.74;42.01
64228;BME280;50546;49.146;10.616;2022-07-22T09:50:52;96587.38;;;29.45;40.61
64228;BME280;50546;49.146;10.616;2022-07-22T09:53:21;96584.69;;;29.42;40.16
64228;BME280;50546;49.146;10.616;2022-07-22T09:55:48;96588.34;;;29.39;39.54
64228;BME280;50546;49.146;10.616;2022-07-22T09:58:14;96574.28;;;28.93;40.05
64228;BME280;50546;49.146;10.616;2022-07-22T10:00:41;96578.06;;;29.19;39.97
64228;BME280;50546;49.146;10.616;2022-07-22T10:03:08;96574.38;;;29.59;40.41
64228;BME280;50546;49.146;10.616;2022-07-22T10:05:41;96571.38;;;29.98;39.84
64228;BME280;50546;49.146;10.616;2022-07-22T10:08:07;96554.56;;;29.73;39.47
64228;BME280;50546;49.146;10.616;2022-07-22T10:10:34;96568.66;;;30.11;39.00
64228;BME280;50546;49.146;10.616;2022-07-22T10:13:02;96570.75;;;30.07;38.91
64228;BME280;50546;49.146;10.616;2022-07-22T10:15:29;96573.34;;;30.14;37.61
64228;BME280;50546;49.146;10.616;2022-07-22T10:17:56;96568.66;;;29.66;38.52
64228;BME280;50546;49.146;10.616;2022-07-22T10:20:27;96561.34;;;29.72;38.09
64228;BME280;50546;49.146;10.616;2022-07-22T10:23:00;96562.31;;;29.82;38.50
64228;BME280;50546;49.146;10.616;2022-07-22T10:25:29;96559.16;;;29.96;37.95
64228;BME280;50546;49.146;10.616;2022-07-22T10:27:58;96556.56;;;29.72;38.40
64228;BME280;50546;49.146;10.616;2022-07-22T10:33:06;96552.72;;;29.01;38.83
64228;BME280;50546;49.146;10.616;2022-07-22T10:35:34;96548.34;;;29.20;40.47
64228;BME280;50546;49.146;10.616;2022-07-22T10:38:05;96536.16;;;29.79;39.93
64228;BME280;50546;49.146;10.616;2022-07-22T10:40:45;96540.22;;;29.91;39.53
64228;BME280;50546;49.146;10.616;2022-07-22T10:43:14;96532.41;;;30.57;38.00
64228;BME280;50546;49.146;10.616;2022-07-22T10:50:49;96530.44;;;30.70;36.97
64228;BME280;50546;49.146;10.616;2022-07-22T10:58:42;96531.09;;;29.90;37.90
64228;BME280;50546;49.146;10.616;2022-07-22T11:01:13;96527.06;;;30.08;36.94
64228;BME280;50546;49.146;10.616;2022-07-22T11:03:40;96519.50;;;30.08;36.68
64228;BME280;50546;49.146;10.616;2022-07-22T11:06:27;96521.50;;;30.50;36.74
64228;BME280;50546;49.146;10.616;2022-07-22T11:08:58;96507.84;;;30.68;36.64
64228;BME280;50546;49.146;10.616;2022-07-22T11:11:34;96509.50;;;30.53;35.92
64228;BME280;50546;49.146;10.616;2022-07-22T11:14:00;96514.75;;;30.63;37.00
64228;BME280;50546;49.146;10.616;2022-07-22T11:16:27;96510.44;;;31.01;35.68
64228;BME280;50546;49.146;10.616;2022-07-22T11:18:58;96511.84;;;30.67;35.90
64228;BME280;50546;49.146;10.616;2022-07-22T11:21:26;96501.09;;;30.95;35.83
64228;BME280;50546;49.146;10.616;2022-07-22T11:23:54;96503.97;;;31.04;35.87
64228;BME280;50546;49.146;10.616;2022-07-22T11:29:09;96506.41;;;31.27;35.25
64228;BME280;50546;49.146;10.616;2022-07-22T11:31:36;96491.13;;;31.79;33.92
64228;BME280;50546;49.146;10.616;2022-07-22T11:34:06;96483.69;;;31.42;34.00
64228;BME280;50546;49.146;10.616;2022-07-22T11:36:38;96492.78;;;31.29;35.20
64228;BME280;50546;49.146;10.616;2022-07-22T11:39:04;96486.91;;;31.40;34.25
64228;BME280;50546;49.146;10.616;2022-07-22T11:41:31;96482.97;;;31.50;35.25
64228;BME280;50546;49.146;10.616;2022-07-22T11:43:57;96486.31;;;31.93;33.71
64228;BME280;50546;49.146;10.616;2022-07-22T11:46:23;96478.81;;;32.33;34.19
64228;BME280;50546;49.146;10.616;2022-07-22T11:48:54;96473.03;;;32.50;32.25
64228;BME280;50546;49.146;10.616;2022-07-22T11:51:27;96464.03;;;32.46;33.30
64228;BME280;50546;49.146;10.616;2022-07-22T11:53:54;96470.31;;;32.37;32.78
64228;BME280;50546;49.146;10.616;2022-07-22T11:56:19;96473.41;;;32.39;33.00
64228;BME280;50546;49.146;10.616;2022-07-22T11:58:48;96461.63;;;32.35;33.00
64228;BME280;50546;49.146;10.616;2022-07-22T12:01:28;96463.25;;;32.23;30.58
64228;BME280;50546;49.146;10.616;2022-07-22T12:04:02;96466.88;;;32.55;31.54
64228;BME280;50546;49.146;10.616;2022-07-22T12:06:28;96460.97;;;32.31;31.18
64228;BME280;50546;49.146;10.616;2022-07-22T12:08:56;96445.97;;;32.38;31.71
64228;BME280;50546;49.146;10.616;2022-07-22T12:11:26;96447.63;;;32.57;31.84
64228;BME280;50546;49.146;10.616;2022-07-22T12:13:52;96451.50;;;32.50;30.69
64228;BME280;50546;49.146;10.616;2022-07-22T12:18:43;96437.00;;;33.05;30.56
64228;BME280;50546;49.146;10.616;2022-07-22T12:21:09;96432.09;;;32.87;30.71
64228;BME280;50546;49.146;10.616;2022-07-22T12:23:34;96425.81;;;33.05;30.71
64228;BME280;50546;49.146;10.616;2022-07-22T12:26:01;96424.13;;;32.67;28.95
64228;BME280;50546;49.146;10.616;2022-07-22T12:28:27;96423.00;;;32.96;30.42
64228;BME280;50546;49.146;10.616;2022-07-22T12:30:55;96420.09;;;33.18;30.46
64228;BME280;50546;49.146;10.616;2022-07-22T12:33:22;96420.00;;;33.49;30.21
64228;BME280;50546;49.146;10.616;2022-07-22T12:35:59;96413.59;;;33.76;29.69
64228;BME280;50546;49.146;10.616;2022-07-22T12:38:25;96412.84;;;33.57;28.97
64228;BME280;50546;49.146;10.616;2022-07-22T12:40:50;96411.75;;;33.73;28.52
64228;BME280;50546;49.146;10.616;2022-07-22T12:43:15;96412.53;;;33.64;28.81
64228;BME280;50546;49.146;10.616;2022-07-22T12:45:42;96407.22;;;34.03;28.80
64228;BME280;50546;49.146;10.616;2022-07-22T12:48:09;96412.03;;;33.93;29.19
64228;BME280;50546;49.146;10.616;2022-07-22T12:50:42;96407.19;;;34.12;27.94
64228;BME280;50546;49.146;10.616;2022-07-22T12:53:10;96407.25;;;33.57;28.26
64228;BME280;50546;49.146;10.616;2022-07-22T12:55:39;96400.22;;;33.25;29.36
64228;BME280;50546;49.146;10.616;2022-07-22T12:58:06;96395.56;;;32.63;29.53
64228;BME280;50546;49.146;10.616;2022-07-22T13:00:37;96391.09;;;32.34;30.02
64228;BME280;50546;49.146;10.616;2022-07-22T13:03:03;96395.03;;;32.87;30.78
64228;BME280;50546;49.146;10.616;2022-07-22T13:05:29;96391.50;;;33.04;29.30
64228;BME280;50546;49.146;10.616;2022-07-22T13:07:54;96396.03;;;33.11;30.49